sensor_id;sensor_type;location;lat;lon;timestamp;pressure;altitude;pressure_sealevel;temperature;humidity
21664;BME280;10993;52.510;13.456;2022-08-19T00:00:10;-26830.56;;;23.06;100.00
21664;BME280;10993;52.510;13.456;2022-08-19T00:05:15;-26837.31;;;23.28;100.00
21664;BME280;10993;52.510;13.456;2022-08-19T00:10:18;-26840.84;;;23.40;100.00
21664;BME280;10993;52.510;13.456;2022-08-19T00:15:20;-26842.84;;;23.47;100.00
21664;BME280;10993;52.510;13.456;2022-08-19T00:20:22;-26837.78;;;23.30;100.00
21664;BME280;10993;52.510;13.456;2022-08-19T00:25:22;-26836.84;;;23.27;100.00
21664;BME280;10993;52.510;13.456;2022-08-19T00:30:23;-26836.53;;;23.26;100.00
21664;BME280;10993;52.510;13.456;2022-08-19T00:35:25;-26832.69;;;23.13;100.00
21664;BME280;10993;52.510;13.456;2022-08-19T00:40:27;-26834.09;;;23.17;100.00
21664;BME280;10993;52.510;13.456;2022-08-19T00:45:28;-26831.00;;;23.07;100.00
21664;BME280;10993;52.510;13.456;2022-08-19T00:50:33;-26814.13;;;22.50;100.00
21664;BME280;10993;52.510;13.456;2022-08-19T00:55:34;-26808.56;;;22.32;100.00
21664;BME280;10993;52.510;13.456;2022-08-19T01:00:34;-26809.34;;;22.34;100.00
21664;BME280;10993;52.510;13.456;2022-08-19T01:05:39;-26807.34;;;22.28;100.00
21664;BME280;10993;52.510;13.456;2022-08-19T01:10:43;-26798.41;;;21.98;100.00
21664;BME280;10993;52.510;13.456;2022-08-19T01:15:48;-26806.72;;;22.26;100.00
21664;BME280;10993;52.510;13.456;2022-08-19T01:20:51;-26794.72;;;21.85;100.00
21664;BME280;10993;52.510;13.456;2022-08-19T01:25:55;-26799.03;;;22.00;100.00
21664;BME280;10993;52.510;13.456;2022-08-19T01:30:55;-26793.50;;;21.81;100.00
21664;BME280;10993;52.510;13.456;2022-08-19T01:36:04;-26797.97;;;21.96;100.00
21664;BME280;10993;52.510;13.456;2022-08-19T01:41:06;-26790.25;;;21.71;100.00
21664;BME280;10993;52.510;13.456;2022-08-19T01:46:07;-26787.19;;;21.60;100.00
21664;BME280;10993;52.510;13.456;2022-08-19T01:51:08;-26782.25;;;21.44;100.00
21664;BME280;10993;52.510;13.456;2022-08-19T01:56:10;-26788.88;;;21.66;100.00
21664;BME280;10993;52.510;13.456;2022-08-19T02:01:10;-26787.66;;;21.62;100.00
21664;BME280;10993;52.510;13.456;2022-08-19T02:06:11;-26795.81;;;21.89;100.00
21664;BME280;10993;52.510;13.456;2022-08-19T02:11:19;-26796.41;;;21.91;100.00
21664;BME280;10993;52.510;13.456;2022-08-19T02:16:21;-26803.19;;;22.14;100.00
21664;BME280;10993;52.510;13.456;2022-08-19T02:21:23;-26796.25;;;21.91;100.00
21664;BME280;10993;52.510;13.456;2022-08-19T02:26:25;-26793.19;;;21.80;100.00
21664;BME280;10993;52.510;13.456;2022-08-19T02:31:28;-26794.88;;;21.86;100.00
21664;BME280;10993;52.510;13.456;2022-08-19T02:36:30;-26791.34;;;21.74;100.00
21664;BME280;10993;52.510;13.456;2022-08-19T02:41:33;-26793.19;;;21.80;100.00
21664;BME280;10993;52.510;13.456;2022-08-19T02:46:33;-26793.34;;;21.81;100.00
21664;BME280;10993;52.510;13.456;2022-08-19T02:51:36;-26790.88;;;21.73;100.00
21664;BME280;10993;52.510;13.456;2022-08-19T02:56:42;-26789.19;;;21.67;100.00
21664;BME280;10993;52.510;13.456;2022-08-19T03:01:42;-26783.16;;;21.47;100.00
21664;BME280;10993;52.510;13.456;2022-08-19T03:06:45;-26794.72;;;21.85;100.00
21664;BME280;10993;52.510;13.456;2022-08-19T03:11:48;-26793.97;;;21.83;100.00
21664;BME280;10993;52.510;13.456;2022-08-19T03:16:50;-26790.41;;;21.71;100.00
21664;BME280;10993;52.510;13.456;2022-08-19T03:21:51;-26789.34;;;21.67;100.00
21664;BME280;10993;52.510;13.456;2022-08-19T03:26:54;-26786.72;;;21.59;100.00
21664;BME280;10993;52.510;13.456;2022-08-19T03:31:58;-26787.34;;;21.61;100.00
21664;BME280;10993;52.510;13.456;2022-08-19T03:37:04;-26783.63;;;21.48;100.00
21664;BME280;10993;52.510;13.456;2022-08-19T03:42:06;-26781.63;;;21.42;100.00
21664;BME280;10993;52.510;13.456;2022-08-19T03:47:06;-26777.63;;;21.28;100.00
21664;BME280;10993;52.510;13.456;2022-08-19T03:52:07;-26783.34;;;21.47;100.00
21664;BME280;10993;52.510;13.456;2022-08-19T03:57:09;-26778.09;;;21.30;100.00
21664;BME280;10993;52.510;13.456;2022-08-19T04:02:11;-26781.47;;;21.41;100.00
21664;BME280;10993;52.510;13.456;2022-08-19T04:07:13;-26782.88;;;21.46;100.00
21664;BME280;10993;52.510;13.456;2022-08-19T04:12:22;-26780.41;;;21.38;100.00
21664;BME280;10993;52.510;13.456;2022-08-19T04:17:22;-26781.47;;;21.41;100.00
21664;BME280;10993;52.510;13.456;2022-08-19T04:22:23;-26782.56;;;21.45;100.00
21664;BME280;10993;52.510;13.456;2022-08-19T04:27:24;-26784.88;;;21.52;100.00
21664;BME280;10993;52.510;13.456;2022-08-19T04:32:25;-26789.50;;;21.68;100.00
21664;BME280;10993;52.510;13.456;2022-08-19T04:37:26;-26788.09;;;21.63;100.00
21664;BME280;10993;52.510;13.456;2022-08-19T04:42:28;-26791.34;;;21.74;100.00
21664;BME280;10993;52.510;13.456;2022-08-19T04:47:42;-26789.03;;;21.66;100.00
21664;BME280;10993;52.510;13.456;2022-08-19T04:52:44;-26795.66;;;21.89;100.00
21664;BME280;10993;52.510;13.456;2022-08-19T04:57:46;-26799.50;;;22.01;100.00
21664;BME280;10993;52.510;13.456;2022-08-19T05:02:46;-26813.66;;;22.49;100.00
21664;BME280;10993;52.510;13.456;2022-08-19T05:07:47;-26841.16;;;23.41;100.00
21664;BME280;10993;52.510;13.456;2022-08-19T05:12:48;-26887.75;;;24.98;100.00
21664;BME280;10993;52.510;13.456;2022-08-19T05:17:49;-26931.59;;;26.46;96.82
21664;BME280;10993;52.510;13.456;2022-08-19T05:23:10;-26949.31;;;27.06;92.08
21664;BME280;10993;52.510;13.456;2022-08-19T05:28:12;-26982.94;;;28.20;84.13
21664;BME280;10993;52.510;13.456;2022-08-19T05:33:12;-27008.31;;;29.06;77.11
21664;BME280;10993;52.510;13.456;2022-08-19T05:38:12;-26991.75;;;28.49;75.99
21664;BME280;10993;52.510;13.456;2022-08-19T05:43:15;-26995.09;;;28.61;77.24
21664;BME280;10993;52.510;13.456;2022-08-19T05:48:16;-27017.88;;;29.38;71.79
21664;BME280;10993;52.510;13.456;2022-08-19T05:53:18;-26952.50;;;27.16;81.69
21664;BME280;10993;52.510;13.456;2022-08-19T05:58:19;-26913.44;;;25.84;92.15
21664;BME280;10993;52.510;13.456;2022-08-19T06:03:20;-26904.25;;;25.54;96.00
21664;BME280;10993;52.510;13.456;2022-08-19T06:08:20;-26900.91;;;25.42;97.46
21664;BME280;10993;52.510;13.456;2022-08-19T06:13:22;-26890.50;;;25.07;100.00
21664;BME280;10993;52.510;13.456;2022-08-19T06:18:22;-26895.09;;;25.23;100.00
21664;BME280;10993;52.510;13.456;2022-08-19T06:23:23;-26879.78;;;24.71;100.00
21664;BME280;10993;52.510;13.456;2022-08-19T06:28:27;-26886.69;;;24.94;100.00
21664;BME280;10993;52.510;13.456;2022-08-19T06:33:28;-26891.25;;;25.10;100.00
21664;BME280;10993;52.510;13.456;2022-08-19T06:38:28;-26880.69;;;24.74;100.00
21664;BME280;10993;52.510;13.456;2022-08-19T06:43:30;-26889.44;;;25.04;100.00
21664;BME280;10993;52.510;13.456;2022-08-19T06:48:30;-26905.94;;;25.59;100.00
21664;BME280;10993;52.510;13.456;2022-08-19T06:53:32;-26901.66;;;25.45;99.20
21664;BME280;10993;52.510;13.456;2022-08-19T06:58:34;-26885.91;;;24.92;99.98
21664;BME280;10993;52.510;13.456;2022-08-19T07:03:36;-26885.91;;;24.92;100.00
21664;BME280;10993;52.510;13.456;2022-08-19T07:08:38;-26891.72;;;25.11;100.00
21664;BME280;10993;52.510;13.456;2022-08-19T07:13:44;-26895.09;;;25.23;100.00
21664;BME280;10993;52.510;13.456;2022-08-19T07:18:45;-26895.53;;;25.24;99.72
21664;BME280;10993;52.510;13.456;2022-08-19T07:23:47;-26897.53;;;25.31;99.92
21664;BME280;10993;52.510;13.456;2022-08-19T07:28:50;-26880.09;;;24.72;100.00
21664;BME280;10993;52.510;13.456;2022-08-19T07:33:52;-26894.47;;;25.21;100.00
21664;BME280;10993;52.510;13.456;2022-08-19T07:38:55;-26895.41;;;25.24;100.00
21664;BME280;10993;52.510;13.456;2022-08-19T07:43:57;-26887.75;;;24.98;100.00
21664;BME280;10993;52.510;13.456;2022-08-19T07:48:58;-26891.25;;;25.10;100.00
21664;BME280;10993;52.510;13.456;2022-08-19T07:53:59;-26893.88;;;25.18;100.00
21664;BME280;10993;52.510;13.456;2022-08-19T07:59:01;-26891.25;;;25.10;100.00
21664;BME280;10993;52.510;13.456;2022-08-19T08:04:02;-26892.78;;;25.15;100.00
21664;BME280;10993;52.510;13.456;2022-08-19T08:09:23;-26901.97;;;25.46;100.00
21664;BME280;10993;52.510;13.456;2022-08-19T08:14:29;-26927.19;;;26.31;97.19
21664;BME280;10993;52.510;13.456;2022-08-19T08:19:30;-26938.78;;;26.70;93.72
21664;BME280;10993;52.510;13.456;2022-08-19T08:24:30;-26953.25;;;27.19;91.90
21664;BME280;10993;52.510;13.456;2022-08-19T08:29:32;-26964.06;;;27.56;87.48
21664;BME280;10993;52.510;13.456;2022-08-19T08:34:33;-26987.81;;;28.36;83.88
21664;BME280;10993;52.510;13.456;2022-08-19T08:39:33;-27036.97;;;30.03;73.57
21664;BME280;10993;52.510;13.456;2022-08-19T08:44:43;-27075.72;;;31.35;66.30
21664;BME280;10993;52.510;13.456;2022-08-19T08:49:52;-27086.00;;;31.70;62.17
21664;BME280;10993;52.510;13.456;2022-08-19T08:54:55;-27063.03;;;30.92;62.58
21664;BME280;10993;52.510;13.456;2022-08-19T09:00:00;-27053.34;;;30.59;66.62
21664;BME280;10993;52.510;13.456;2022-08-19T09:05:02;-27037.28;;;30.04;70.15
21664;BME280;10993;52.510;13.456;2022-08-19T09:10:08;-27040.00;;;30.13;69.29
21664;BME280;10993;52.510;13.456;2022-08-19T09:15:13;-27042.75;;;30.23;70.43
21664;BME280;10993;52.510;13.456;2022-08-19T09:20:16;-27082.38;;;31.58;62.94
21664;BME280;10993;52.510;13.456;2022-08-19T09:25:20;-27069.38;;;31.13;62.92
21664;BME280;10993;52.510;13.456;2022-08-19T09:30:26;-27131.97;;;33.27;56.40
21664;BME280;10993;52.510;13.456;2022-08-19T09:35:29;-27077.69;;;31.42;58.71
21664;BME280;10993;52.510;13.456;2022-08-19T09:40:30;-27052.59;;;30.56;65.60
21664;BME280;10993;52.510;13.456;2022-08-19T09:45:32;-27109.81;;;32.52;57.73
21664;BME280;10993;52.510;13.456;2022-08-19T09:50:32;-27103.66;;;32.30;57.60
21664;BME280;10993;52.510;13.456;2022-08-19T09:55:34;-27100.34;;;32.19;57.97
21664;BME280;10993;52.510;13.456;2022-08-19T10:00:36;-27106.50;;;32.40;57.62
21664;BME280;10993;52.510;13.456;2022-08-19T10:05:37;-27052.75;;;30.57;64.55
21664;BME280;10993;52.510;13.456;2022-08-19T10:10:50;-27036.38;;;30.01;67.74
21664;BME280;10993;52.510;13.456;2022-08-19T10:15:53;-27020.75;;;29.48;69.39
21664;BME280;10993;52.510;13.456;2022-08-19T10:21:03;-27022.59;;;29.54;70.59
21664;BME280;10993;52.510;13.456;2022-08-19T10:26:07;-27025.31;;;29.63;70.07
21664;BME280;10993;52.510;13.456;2022-08-19T10:31:11;-27029.84;;;29.79;70.59
21664;BME280;10993;52.510;13.456;2022-08-19T10:36:14;-27031.38;;;29.84;69.69
21664;BME280;10993;52.510;13.456;2022-08-19T10:41:17;-27035.78;;;29.99;68.05
21664;BME280;10993;52.510;13.456;2022-08-19T10:46:21;-27046.06;;;30.34;69.23
21664;BME280;10993;52.510;13.456;2022-08-19T10:51:22;-27043.81;;;30.26;66.71
21664;BME280;10993;52.510;13.456;2022-08-19T10:56:41;-27037.59;;;30.05;67.68
21664;BME280;10993;52.510;13.456;2022-08-19T11:01:58;-27035.31;;;29.97;69.97
21664;BME280;10993;52.510;13.456;2022-08-19T11:06:59;-27033.03;;;29.90;69.88
21664;BME280;10993;52.510;13.456;2022-08-19T11:12:00;-27021.53;;;29.51;70.83
21664;BME280;10993;52.510;13.456;2022-08-19T11:17:03;-27005.59;;;28.96;74.58
21664;BME280;10993;52.510;13.456;2022-08-19T11:22:04;-26990.69;;;28.46;77.98
21664;BME280;10993;52.510;13.456;2022-08-19T11:27:09;-26980.50;;;28.11;80.55
21664;BME280;10993;52.510;13.456;2022-08-19T11:32:11;-26997.09;;;28.68;76.45
21664;BME280;10993;52.510;13.456;2022-08-19T11:37:12;-27013.16;;;29.22;74.77
21664;BME280;10993;52.510;13.456;2022-08-19T11:42:13;-27010.16;;;29.12;73.05
21664;BME280;10993;52.510;13.456;2022-08-19T11:47:33;-27015.47;;;29.30;72.94
21664;BME280;10993;52.510;13.456;2022-08-19T11:52:34;-27017.59;;;29.37;70.74
21664;BME280;10993;52.510;13.456;2022-08-19T11:57:34;-27035.16;;;29.97;67.52
21664;BME280;10993;52.510;13.456;2022-08-19T12:02:36;-27043.66;;;30.26;66.77
21664;BME280;10993;52.510;13.456;2022-08-19T12:07:36;-27042.44;;;30.22;65.86
21664;BME280;10993;52.510;13.456;2022-08-19T12:12:37;-27035.16;;;29.97;68.11
21664;BME280;10993;52.510;13.456;2022-08-19T12:17:43;-27037.28;;;30.04;65.87
21664;BME280;10993;52.510;13.456;2022-08-19T12:22:44;-27041.97;;;30.20;66.85
21664;BME280;10993;52.510;13.456;2022-08-19T12:27:44;-27038.81;;;30.09;66.39
21664;BME280;10993;52.510;13.456;2022-08-19T12:32:46;-27038.94;;;30.10;66.14
21664;BME280;10993;52.510;13.456;2022-08-19T12:37:47;-27049.72;;;30.46;63.12
21664;BME280;10993;52.510;13.456;2022-08-19T12:42:48;-27073.00;;;31.26;60.89
21664;BME280;10993;52.510;13.456;2022-08-19T12:47:52;-27060.00;;;30.81;61.88
21664;BME280;10993;52.510;13.456;2022-08-19T12:52:53;-27040.63;;;30.15;64.40
21664;BME280;10993;52.510;13.456;2022-08-19T12:57:53;-27044.56;;;30.29;63.63
21664;BME280;10993;52.510;13.456;2022-08-19T13:02:55;-27055.16;;;30.65;61.91
21664;BME280;10993;52.510;13.456;2022-08-19T13:07:57;-27064.53;;;30.97;60.75
21664;BME280;10993;52.510;13.456;2022-08-19T13:12:59;-27060.75;;;30.84;61.18
21664;BME280;10993;52.510;13.456;2022-08-19T13:18:01;-27064.84;;;30.98;60.71
21664;BME280;10993;52.510;13.456;2022-08-19T13:23:01;-27053.94;;;30.61;61.64
21664;BME280;10993;52.510;13.456;2022-08-19T13:28:02;-27061.06;;;30.85;61.96
21664;BME280;10993;52.510;13.456;2022-08-19T13:33:05;-27063.78;;;30.94;61.09
21664;BME280;10993;52.510;13.456;2022-08-19T13:38:12;-27077.53;;;31.41;58.91
21664;BME280;10993;52.510;13.456;2022-08-19T13:43:13;-27064.84;;;30.98;58.68
21664;BME280;10993;52.510;13.456;2022-08-19T13:48:15;-27060.00;;;30.81;60.41
21664;BME280;10993;52.510;13.456;2022-08-19T13:53:17;-27057.56;;;30.73;61.13
21664;BME280;10993;52.510;13.456;2022-08-19T13:58:17;-27050.00;;;30.47;60.85
21664;BME280;10993;52.510;13.456;2022-08-19T14:03:19;-27040.16;;;30.14;61.85
21664;BME280;10993;52.510;13.456;2022-08-19T14:08:19;-27040.00;;;30.13;64.14
21664;BME280;10993;52.510;13.456;2022-08-19T14:13:22;-27026.97;;;29.69;65.81
21664;BME280;10993;52.510;13.456;2022-08-19T14:18:24;-27020.75;;;29.48;66.09
21664;BME280;10993;52.510;13.456;2022-08-19T14:23:25;-27014.38;;;29.26;67.51
21664;BME280;10993;52.510;13.456;2022-08-19T14:28:25;-27013.94;;;29.25;67.58
21664;BME280;10993;52.510;13.456;2022-08-19T14:33:27;-27016.22;;;29.32;67.66
21664;BME280;10993;52.510;13.456;2022-08-19T14:38:27;-27013.78;;;29.24;65.22
21664;BME280;10993;52.510;13.456;2022-08-19T14:43:31;-27013.31;;;29.23;65.77
21664;BME280;10993;52.510;13.456;2022-08-19T14:48:33;-27003.00;;;28.88;68.30
21664;BME280;10993;52.510;13.456;2022-08-19T14:53:33;-26991.16;;;28.47;71.46
21664;BME280;10993;52.510;13.456;2022-08-19T14:58:33;-26991.91;;;28.50;71.06
21664;BME280;10993;52.510;13.456;2022-08-19T15:03:35;-26986.28;;;28.31;70.59
21664;BME280;10993;52.510;13.456;2022-08-19T15:08:37;-26980.81;;;28.12;73.22
21664;BME280;10993;52.510;13.456;2022-08-19T15:13:39;-26987.50;;;28.35;71.80
21664;BME280;10993;52.510;13.456;2022-08-19T15:18:41;-26970.63;;;27.78;75.41
21664;BME280;10993;52.510;13.456;2022-08-19T15:23:45;-26958.75;;;27.38;76.98
21664;BME280;10993;52.510;13.456;2022-08-19T15:28:46;-26961.19;;;27.46;77.35
21664;BME280;10993;52.510;13.456;2022-08-19T15:33:48;-26957.38;;;27.33;77.73
21664;BME280;10993;52.510;13.456;2022-08-19T15:38:49;-26958.28;;;27.36;77.18
21664;BME280;10993;52.510;13.456;2022-08-19T15:43:53;-26947.63;;;27.00;78.80
21664;BME280;10993;52.510;13.456;2022-08-19T15:48:56;-26937.25;;;26.65;81.22
21664;BME280;10993;52.510;13.456;2022-08-19T15:53:57;-26939.09;;;26.71;81.76
21664;BME280;10993;52.510;13.456;2022-08-19T15:58:58;-26940.75;;;26.77;82.95
21664;BME280;10993;52.510;13.456;2022-08-19T16:04:18;-26934.34;;;26.55;83.49
21664;BME280;10993;52.510;13.456;2022-08-19T16:09:37;-26920.47;;;26.08;86.05
21664;BME280;10993;52.510;13.456;2022-08-19T16:14:38;-26902.72;;;25.48;89.31
21664;BME280;10993;52.510;13.456;2022-08-19T16:19:42;-26914.66;;;25.89;89.40
21664;BME280;10993;52.510;13.456;2022-08-19T16:24:43;-26924.13;;;26.21;86.64
21664;BME280;10993;52.510;13.456;2022-08-19T16:29:43;-26918.00;;;26.00;87.50
21664;BME280;10993;52.510;13.456;2022-08-19T16:34:45;-26925.66;;;26.26;86.54
21664;BME280;10993;52.510;13.456;2022-08-19T16:39:46;-26938.94;;;26.71;84.17
21664;BME280;10993;52.510;13.456;2022-08-19T16:44:46;-26929.00;;;26.37;85.06
21664;BME280;10993;52.510;13.456;2022-08-19T16:49:48;-26930.53;;;26.42;85.47
21664;BME280;10993;52.510;13.456;2022-08-19T16:54:48;-26926.56;;;26.29;86.29
21664;BME280;10993;52.510;13.456;2022-08-19T16:59:49;-26918.63;;;26.02;88.08
21664;BME280;10993;52.510;13.456;2022-08-19T17:04:52;-26910.69;;;25.75;90.03
21664;BME280;10993;52.510;13.456;2022-08-19T17:09:53;-26911.00;;;25.76;90.41
21664;BME280;10993;52.510;13.456;2022-08-19T17:14:53;-26907.31;;;25.64;91.55
21664;BME280;10993;52.510;13.456;2022-08-19T17:19:56;-26892.94;;;25.15;94.83
21664;BME280;10993;52.510;13.456;2022-08-19T17:24:58;-26890.19;;;25.06;95.59
21664;BME280;10993;52.510;13.456;2022-08-19T17:30:00;-26893.88;;;25.18;95.59
21664;BME280;10993;52.510;13.456;2022-08-19T17:35:03;-26892.03;;;25.12;96.05
21664;BME280;10993;52.510;13.456;2022-08-19T17:40:06;-26895.41;;;25.24;96.26
21664;BME280;10993;52.510;13.456;2022-08-19T17:45:08;-26889.28;;;25.03;97.64
21664;BME280;10993;52.510;13.456;2022-08-19T17:50:11;-26885.28;;;24.90;98.21
21664;BME280;10993;52.510;13.456;2022-08-19T17:55:14;-26883.75;;;24.84;98.86
21664;BME280;10993;52.510;13.456;2022-08-19T18:00:16;-26882.69;;;24.81;99.57
21664;BME280;10993;52.510;13.456;2022-08-19T18:05:19;-26884.06;;;24.86;98.87
21664;BME280;10993;52.510;13.456;2022-08-19T18:10:20;-26867.53;;;24.30;99.86
21664;BME280;10993;52.510;13.456;2022-08-19T18:15:23;-26873.34;;;24.49;99.63
21664;BME280;10993;52.510;13.456;2022-08-19T18:20:26;-26868.59;;;24.33;100.00
21664;BME280;10993;52.510;13.456;2022-08-19T18:25:27;-26869.97;;;24.38;100.00
21664;BME280;10993;52.510;13.456;2022-08-19T18:30:30;-26869.38;;;24.36;100.00
21664;BME280;10993;52.510;13.456;2022-08-19T18:35:34;-26866.00;;;24.25;100.00
21664;BME280;10993;52.510;13.456;2022-08-19T18:40:37;-26867.38;;;24.29;100.00
21664;BME280;10993;52.510;13.456;2022-08-19T18:45:56;-26866.16;;;24.25;100.00
21664;BME280;10993;52.510;13.456;2022-08-19T18:51:17;-26868.28;;;24.32;100.00
21664;BME280;10993;52.510;13.456;2022-08-19T18:56:19;-26867.38;;;24.29;100.00
21664;BME280;10993;52.510;13.456;2022-08-19T19:01:21;-26866.63;;;24.27;100.00
21664;BME280;10993;52.510;13.456;2022-08-19T19:06:26;-26871.34;;;24.43;100.00
21664;BME280;10993;52.510;13.456;2022-08-19T19:11:32;-26870.59;;;24.40;100.00
21664;BME280;10993;52.510;13.456;2022-08-19T19:16:33;-26861.56;;;24.10;100.00
21664;BME280;10993;52.510;13.456;2022-08-19T19:21:35;-26854.66;;;23.87;100.00
21664;BME280;10993;52.510;13.456;2022-08-19T19:26:35;-26859.25;;;24.02;100.00
21664;BME280;10993;52.510;13.456;2022-08-19T19:31:36;-26859.56;;;24.03;100.00
21664;BME280;10993;52.510;13.456;2022-08-19T19:36:38;-26862.00;;;24.11;100.00
21664;BME280;10993;52.510;13.456;2022-08-19T19:41:39;-26862.16;;;24.12;100.00
21664;BME280;10993;52.510;13.456;2022-08-19T19:46:40;-26863.41;;;24.16;100.00
21664;BME280;10993;52.510;13.456;2022-08-19T19:51:45;-26864.16;;;24.18;100.00
21664;BME280;10993;52.510;13.456;2022-08-19T19:56:46;-26862.31;;;24.12;100.00
21664;BME280;10993;52.510;13.456;2022-08-19T20:01:49;-26859.09;;;24.01;100.00
21664;BME280;10993;52.510;13.456;2022-08-19T20:06:51;-26857.25;;;23.95;100.00
21664;BME280;10993;52.510;13.456;2022-08-19T20:11:53;-26859.56;;;24.03;100.00
21664;BME280;10993;52.510;13.456;2022-08-19T20:16:55;-26862.78;;;24.14;100.00
21664;BME280;10993;52.510;13.456;2022-08-19T20:21:56;-26866.00;;;24.25;100.00
21664;BME280;10993;52.510;13.456;2022-08-19T20:26:57;-26864.78;;;24.21;100.00
21664;BME280;10993;52.510;13.456;2022-08-19T20:31:58;-26859.09;;;24.01;100.00
21664;BME280;10993;52.510;13.456;2022-08-19T20:37:00;-26858.03;;;23.98;100.00
21664;BME280;10993;52.510;13.456;2022-08-19T20:42:00;-26853.13;;;23.81;100.00
21664;BME280;10993;52.510;13.456;2022-08-19T20:47:00;-26865.22;;;24.22;100.00
21664;BME280;10993;52.510;13.456;2022-08-19T20:52:03;-26854.03;;;23.84;100.00
21664;BME280;10993;52.510;13.456;2022-08-19T20:57:04;-26858.66;;;24.00;100.00
21664;BME280;10993;52.510;13.456;2022-08-19T21:02:04;-26860.16;;;24.05;100.00
21664;BME280;10993;52.510;13.456;2022-08-19T21:07:06;-26859.56;;;24.03;100.00
21664;BME280;10993;52.510;13.456;2022-08-19T21:12:10;-26858.78;;;24.00;100.00
21664;BME280;10993;52.510;13.456;2022-08-19T21:17:12;-26849.44;;;23.69;100.00
21664;BME280;10993;52.510;13.456;2022-08-19T21:22:13;-26849.59;;;23.70;100.00
21664;BME280;10993;52.510;13.456;2022-08-19T21:27:14;-26853.41;;;23.82;100.00
21664;BME280;10993;52.510;13.456;2022-08-19T21:32:14;-26856.19;;;23.92;100.00
21664;BME280;10993;52.510;13.456;2022-08-19T21:37:16;-26853.41;;;23.82;100.00
21664;BME280;10993;52.510;13.456;2022-08-19T21:42:16;-26863.84;;;24.17;100.00
21664;BME280;10993;52.510;13.456;2022-08-19T21:47:17;-26866.00;;;24.25;100.00
21664;BME280;10993;52.510;13.456;2022-08-19T21:52:21;-26863.41;;;24.16;100.00
21664;BME280;10993;52.510;13.456;2022-08-19T21:57:22;-26858.78;;;24.00;100.00
21664;BME280;10993;52.510;13.456;2022-08-19T22:02:23;-26850.81;;;23.74;100.00
21664;BME280;10993;52.510;13.456;2022-08-19T22:07:25;-26853.28;;;23.82;100.00
21664;BME280;10993;52.510;13.456;2022-08-19T22:12:29;-26856.50;;;23.93;100.00
21664;BME280;10993;52.510;13.456;2022-08-19T22:17:29;-26858.03;;;23.98;100.00
21664;BME280;10993;52.510;13.456;2022-08-19T22:22:33;-26854.19;;;23.85;100.00
21664;BME280;10993;52.510;13.456;2022-08-19T22:27:34;-26850.34;;;23.72;100.00
21664;BME280;10993;52.510;13.456;2022-08-19T22:32:36;-26846.06;;;23.58;100.00
21664;BME280;10993;52.510;13.456;2022-08-19T22:37:37;-26849.44;;;23.69;100.00
21664;BME280;10993;52.510;13.456;2022-08-19T22:42:40;-26846.97;;;23.61;100.00
21664;BME280;10993;52.510;13.456;2022-08-19T22:47:41;-26848.38;;;23.65;100.00
21664;BME280;10993;52.510;13.456;2022-08-19T22:52:43;-26851.59;;;23.76;100.00
21664;BME280;10993;52.510;13.456;2022-08-19T22:57:43;-26846.06;;;23.58;100.00
21664;BME280;10993;52.510;13.456;2022-08-19T23:02:44;-26844.97;;;23.54;100.00
21664;BME280;10993;52.510;13.456;2022-08-19T23:07:46;-26844.38;;;23.52;100.00
21664;BME280;10993;52.510;13.456;2022-08-19T23:12:47;-26850.19;;;23.72;100.00
21664;BME280;10993;52.510;13.456;2022-08-19T23:17:48;-26850.06;;;23.71;100.00
21664;BME280;10993;52.510;13.456;2022-08-19T23:22:50;-26844.53;;;23.52;100.00
21664;BME280;10993;52.510;13.456;2022-08-19T23:27:51;-26850.66;;;23.73;100.00
21664;BME280;10993;52.510;13.456;2022-08-19T23:33:14;-26857.09;;;23.95;100.00
21664;BME280;10993;52.510;13.456;2022-08-19T23:38:17;-26848.50;;;23.66;100.00
21664;BME280;10993;52.510;13.456;2022-08-19T23:43:18;-26852.34;;;23.79;100.00
21664;BME280;10993;52.510;13.456;2022-08-19T23:48:19;-26853.13;;;23.81;100.00
21664;BME280;10993;52.510;13.456;2022-08-19T23:53:21;-26849.75;;;23.70;100.00
21664;BME280;10993;52.510;13.456;2022-08-19T23:58:22;-26846.97;;;23.61;100.00
